Auburn, Michigan
Current Conditions -  °F | °C
As of 4:53 AM on Thursday 29 Jan 2015 (Local Time) from KMBS Reporting Station
Light Snow Light Snow  
Wind Chill: 17°   Ceiling: 1400
Heat Index: 28°   Visibility: 1.2mi
Dew Point: 21°   Wind: 14mph
Humidity: 75%   Direction: 170°S
Pressure: 29.87"   Gusts: NA
Location:  43.6°N, 84.07°W
Report Text: KMBS 290953Z 17012KT 1 1/4SM -SN BKN014 OVC038 M02/M06 A2987 RMK AO2 SNB37 SLP125 P0000 T10221061
Loading
Personal Weather Stations






























Interactive Weather Map New forecast layout! Learn more

10-Day Weather Forecast

Advertisements
Track Severe Weather on mobile